createdAt,value
2022-12-20T00:02:07.768Z,24.23
2022-12-20T00:04:42.209Z,24.26
2022-12-20T00:07:16.177Z,24.29
2022-12-20T00:09:46.468Z,24.31
2022-12-20T00:12:17.030Z,24.36
2022-12-20T00:14:49.253Z,24.39
2022-12-20T00:17:25.410Z,24.42
2022-12-20T00:19:55.517Z,24.42
2022-12-20T00:22:25.734Z,24.41
2022-12-20T00:24:57.443Z,24.39
2022-12-20T00:27:27.960Z,24.37
2022-12-20T00:30:10.046Z,24.34
2022-12-20T00:32:42.506Z,24.34
2022-12-20T00:35:31.001Z,24.33
2022-12-20T00:38:07.300Z,24.31
2022-12-20T00:40:54.951Z,24.30
2022-12-20T00:43:25.364Z,24.28
2022-12-20T00:46:04.002Z,24.28
2022-12-20T00:48:34.444Z,24.20
2022-12-20T00:51:21.757Z,24.25
2022-12-20T00:53:55.328Z,24.26
2022-12-20T00:56:26.625Z,24.24
2022-12-20T01:01:50.039Z,24.21
2022-12-20T01:04:20.263Z,24.22
2022-12-20T01:06:50.427Z,24.22
2022-12-20T01:09:21.016Z,24.20
2022-12-20T01:11:51.669Z,24.19
2022-12-20T01:14:22.036Z,24.19
2022-12-20T01:16:52.493Z,24.17
2022-12-20T01:19:24.531Z,24.17
2022-12-20T01:21:54.823Z,24.16
2022-12-20T01:24:24.897Z,24.16
2022-12-20T01:26:56.003Z,24.14
2022-12-20T01:29:26.872Z,24.13
2022-12-20T01:31:58.600Z,24.12
2022-12-20T01:34:29.726Z,24.10
2022-12-20T01:37:02.505Z,24.05
2022-12-20T01:39:32.376Z,24.07
2022-12-20T01:42:02.905Z,24.06
2022-12-20T01:44:35.798Z,24.05
2022-12-20T01:47:05.892Z,24.05
2022-12-20T01:49:41.462Z,24.04
2022-12-20T01:52:16.887Z,24.02
2022-12-20T01:54:54.529Z,24.02
2022-12-20T01:57:42.110Z,24.01
2022-12-20T02:00:13.150Z,23.99
2022-12-20T02:02:44.632Z,23.97
2022-12-20T02:05:16.199Z,23.96
2022-12-20T02:07:46.211Z,23.94
2022-12-20T02:10:16.993Z,23.93
2022-12-20T02:12:48.127Z,23.92
2022-12-20T02:15:39.376Z,23.92
2022-12-20T02:18:32.053Z,23.90
2022-12-20T02:21:24.543Z,23.88
2022-12-20T02:24:28.738Z,23.87
2022-12-20T02:27:22.855Z,23.84
2022-12-20T02:30:20.059Z,23.81
2022-12-20T02:32:59.195Z,23.82
2022-12-20T02:35:32.451Z,23.80
2022-12-20T02:38:04.713Z,23.77
2022-12-20T02:40:46.408Z,23.76
2022-12-20T02:46:09.341Z,23.73
2022-12-20T02:48:39.609Z,23.72
2022-12-20T02:51:13.606Z,23.70
2022-12-20T02:53:43.486Z,23.70
2022-12-20T02:56:31.021Z,23.67
2022-12-20T02:59:07.283Z,23.67
2022-12-20T03:01:40.582Z,23.66
2022-12-20T03:04:13.527Z,23.64
2022-12-20T03:06:44.958Z,23.61
2022-12-20T03:09:15.158Z,23.62
2022-12-20T03:11:45.185Z,23.64
2022-12-20T03:14:15.382Z,23.66
2022-12-20T03:16:45.671Z,23.67
2022-12-20T03:19:15.964Z,23.68
2022-12-20T03:21:46.195Z,23.70
2022-12-20T03:24:16.346Z,23.73
2022-12-20T03:26:49.564Z,23.75
2022-12-20T03:29:19.888Z,23.77
2022-12-20T03:31:49.962Z,23.84
2022-12-20T03:34:20.169Z,23.87
2022-12-20T03:36:50.934Z,23.90
2022-12-20T03:39:21.080Z,23.93
2022-12-20T03:41:51.274Z,23.96
2022-12-20T03:44:21.340Z,23.99
2022-12-20T03:46:51.626Z,24.01
2022-12-20T03:49:21.847Z,24.03
2022-12-20T03:51:51.854Z,24.06
2022-12-20T03:54:21.924Z,24.08
2022-12-20T03:56:52.398Z,24.13
2022-12-20T03:59:22.481Z,24.18
2022-12-20T04:01:53.017Z,24.18
2022-12-20T04:04:23.746Z,24.21
2022-12-20T04:06:54.265Z,24.22
2022-12-20T04:09:24.583Z,24.20
2022-12-20T04:11:55.048Z,24.18
2022-12-20T04:14:28.034Z,24.16
2022-12-20T04:16:58.360Z,24.14
2022-12-20T04:19:28.699Z,24.13
2022-12-20T04:22:05.021Z,24.10
2022-12-20T04:24:31.974Z,24.08
2022-12-20T04:27:02.246Z,24.07
2022-12-20T04:29:35.148Z,24.07
2022-12-20T04:32:05.571Z,24.06
2022-12-20T04:34:35.660Z,24.06
2022-12-20T04:37:05.796Z,24.05
2022-12-20T04:39:36.085Z,24.05
2022-12-20T04:42:06.320Z,24.03
2022-12-20T04:44:36.465Z,24.03
2022-12-20T04:47:07.035Z,24.03
2022-12-20T04:49:37.121Z,24.02
2022-12-20T04:52:24.524Z,24.01
2022-12-20T04:55:01.095Z,24.01
2022-12-20T04:57:31.186Z,23.99
2022-12-20T05:00:02.070Z,23.99
2022-12-20T05:02:33.262Z,23.97
2022-12-20T05:05:06.043Z,23.96
2022-12-20T05:07:35.685Z,23.96
2022-12-20T05:10:07.481Z,23.95
2022-12-20T05:12:38.009Z,23.94
2022-12-20T05:15:08.807Z,23.93
2022-12-20T05:17:38.891Z,23.91
2022-12-20T05:20:10.204Z,23.90
2022-12-20T05:22:57.972Z,23.89
2022-12-20T05:25:48.310Z,23.87
2022-12-20T05:28:20.567Z,23.86
2022-12-20T05:30:50.027Z,23.85
2022-12-20T05:33:21.418Z,23.84
2022-12-20T05:35:51.786Z,23.82
2022-12-20T05:38:22.051Z,23.81
2022-12-20T05:40:52.133Z,23.79
2022-12-20T05:43:22.060Z,23.77
2022-12-20T05:45:53.253Z,23.76
2022-12-20T05:48:23.323Z,23.74
2022-12-20T05:50:53.553Z,23.73
2022-12-20T05:53:23.838Z,23.73
2022-12-20T05:55:54.962Z,23.71
2022-12-20T05:58:25.270Z,23.68
2022-12-20T06:00:55.317Z,23.68
2022-12-20T06:03:25.700Z,23.65
2022-12-20T06:05:55.688Z,23.63
2022-12-20T06:08:26.009Z,23.62
2022-12-20T06:10:56.277Z,23.60
2022-12-20T06:13:28.823Z,23.60
2022-12-20T06:15:59.452Z,23.58
2022-12-20T06:18:30.710Z,23.55
2022-12-20T06:21:02.809Z,23.55
2022-12-20T06:23:33.623Z,23.53
2022-12-20T06:26:05.502Z,23.53
2022-12-20T06:28:35.465Z,23.49
2022-12-20T06:31:06.233Z,23.49
2022-12-20T06:33:36.364Z,23.46
2022-12-20T06:36:07.387Z,23.46
2022-12-20T06:38:37.844Z,23.43
2022-12-20T06:41:08.299Z,23.41
2022-12-20T06:43:38.557Z,23.40
2022-12-20T06:46:08.692Z,23.38
2022-12-20T06:48:39.028Z,23.35
2022-12-20T06:51:09.557Z,23.34
2022-12-20T06:53:39.670Z,23.33
2022-12-20T06:56:10.037Z,23.31
2022-12-20T06:58:40.692Z,23.30
2022-12-20T07:01:11.714Z,23.28
2022-12-20T07:03:42.023Z,23.26
2022-12-20T07:06:12.134Z,23.24
2022-12-20T07:08:42.243Z,23.20
2022-12-20T07:11:13.865Z,23.20
2022-12-20T07:13:43.985Z,23.19
2022-12-20T07:16:15.332Z,23.18
2022-12-20T07:18:46.940Z,23.15
2022-12-20T07:21:18.142Z,23.14
2022-12-20T07:23:48.782Z,23.12
2022-12-20T07:26:19.439Z,23.09
2022-12-20T07:29:01.571Z,23.07
2022-12-20T07:31:31.962Z,23.06
2022-12-20T07:34:02.619Z,23.05
2022-12-20T07:36:33.246Z,23.02
2022-12-20T07:39:03.307Z,23.01
2022-12-20T07:41:33.871Z,22.98
2022-12-20T07:44:04.100Z,22.94
2022-12-20T07:46:34.346Z,22.96
2022-12-20T07:49:04.724Z,22.93
2022-12-20T07:51:37.504Z,22.92
2022-12-20T07:54:10.710Z,22.91
2022-12-20T07:56:42.550Z,22.89
2022-12-20T07:59:13.317Z,22.88
2022-12-20T08:01:44.304Z,22.86
2022-12-20T08:04:20.187Z,22.84
2022-12-20T08:06:50.517Z,22.82
2022-12-20T08:09:20.986Z,22.81
2022-12-20T08:11:50.840Z,22.78
2022-12-20T08:14:20.868Z,22.77
2022-12-20T08:16:51.680Z,22.76
2022-12-20T08:19:26.786Z,22.74
2022-12-20T08:21:54.598Z,22.72
2022-12-20T08:24:26.497Z,22.71
2022-12-20T08:26:57.438Z,22.69
2022-12-20T08:29:28.703Z,22.69
2022-12-20T08:31:59.717Z,22.66
2022-12-20T08:34:31.248Z,22.65
2022-12-20T08:37:02.117Z,22.63
2022-12-20T08:39:32.940Z,22.62
2022-12-20T08:42:04.064Z,22.60
2022-12-20T08:44:34.857Z,22.57
2022-12-20T08:47:05.446Z,22.56
2022-12-20T08:49:41.110Z,22.54
2022-12-20T08:52:07.612Z,22.54
2022-12-20T08:54:37.892Z,22.52
2022-12-20T08:57:08.171Z,22.50
2022-12-20T08:59:37.992Z,22.49
2022-12-20T09:02:08.738Z,22.48
2022-12-20T09:04:39.719Z,22.46
2022-12-20T09:07:09.988Z,22.44
2022-12-20T09:09:39.982Z,22.41
2022-12-20T09:12:10.070Z,22.40
2022-12-20T09:14:40.734Z,22.39
2022-12-20T09:17:10.788Z,22.39
2022-12-20T09:19:41.281Z,22.37
2022-12-20T09:22:11.722Z,22.36
2022-12-20T09:24:42.098Z,22.32
2022-12-20T09:27:12.320Z,22.31
2022-12-20T09:29:42.426Z,22.29
2022-12-20T09:32:12.596Z,22.26
2022-12-20T09:34:43.061Z,22.26
2022-12-20T09:37:13.143Z,22.25
2022-12-20T09:39:43.635Z,22.23
2022-12-20T09:42:15.225Z,22.21
2022-12-20T09:44:45.521Z,22.20
2022-12-20T09:47:18.528Z,22.19
2022-12-20T09:49:50.750Z,22.18
2022-12-20T09:52:46.129Z,22.15
2022-12-20T09:55:39.745Z,22.14
2022-12-20T09:58:21.520Z,22.14
2022-12-20T10:00:54.461Z,22.16
2022-12-20T10:03:29.592Z,22.15
2022-12-20T10:06:10.766Z,22.16
2022-12-20T10:09:05.733Z,22.15
2022-12-20T10:11:46.235Z,22.14
2022-12-20T10:14:35.610Z,22.13
2022-12-20T10:19:49.089Z,22.11
2022-12-20T10:22:43.872Z,22.09
2022-12-20T10:25:24.617Z,22.09
2022-12-20T10:27:56.268Z,22.08
2022-12-20T10:30:28.149Z,22.06
2022-12-20T10:33:00.069Z,22.05
2022-12-20T10:35:35.715Z,22.05
2022-12-20T10:38:17.563Z,22.04
2022-12-20T10:41:19.938Z,22.03
2022-12-20T10:43:25.167Z,22.02
2022-12-20T10:46:00.660Z,22.01
2022-12-20T10:48:33.422Z,21.99
2022-12-20T10:51:17.658Z,21.97
2022-12-20T10:53:58.724Z,21.97
2022-12-20T10:56:30.784Z,21.97
2022-12-20T10:59:24.892Z,21.94
2022-12-20T11:01:55.495Z,21.94
2022-12-20T11:04:36.716Z,21.92
2022-12-20T11:07:30.684Z,21.91
2022-12-20T11:10:05.773Z,21.90
2022-12-20T11:12:35.952Z,21.88
2022-12-20T11:15:12.526Z,21.86
2022-12-20T11:17:47.610Z,21.84
2022-12-20T11:20:30.237Z,21.85
2022-12-20T11:23:12.107Z,21.84
2022-12-20T11:25:47.852Z,21.83
2022-12-20T11:28:42.435Z,21.82
2022-12-20T11:31:24.652Z,21.81
2022-12-20T11:34:26.437Z,21.80
2022-12-20T11:37:08.711Z,21.79
2022-12-20T11:40:08.643Z,21.79
2022-12-20T11:42:56.470Z,21.77
2022-12-20T11:45:29.200Z,21.76
2022-12-20T11:48:18.454Z,21.74
2022-12-20T11:50:52.082Z,21.73
2022-12-20T11:53:43.562Z,21.73
2022-12-20T11:56:16.323Z,21.73
2022-12-20T11:58:55.401Z,21.71
2022-12-20T12:01:28.150Z,21.69
2022-12-20T12:04:06.962Z,21.68
2022-12-20T12:06:42.738Z,21.67
2022-12-20T12:09:18.778Z,21.65
2022-12-20T12:12:09.663Z,21.66
2022-12-20T12:14:42.740Z,21.65
2022-12-20T12:17:25.596Z,21.64
2022-12-20T12:19:56.985Z,21.63
2022-12-20T12:22:32.771Z,21.65
2022-12-20T12:25:04.501Z,21.66
2022-12-20T12:27:36.020Z,21.68
2022-12-20T12:30:07.790Z,21.70
2022-12-20T12:32:44.585Z,21.76
2022-12-20T12:35:37.540Z,21.82
2022-12-20T12:38:22.692Z,21.90
2022-12-20T12:41:30.112Z,21.98
2022-12-20T12:44:23.965Z,22.05
2022-12-20T12:46:57.221Z,22.16
2022-12-20T12:49:27.543Z,22.24
2022-12-20T12:51:59.785Z,22.31
2022-12-20T12:54:39.410Z,22.39
2022-12-20T12:57:18.393Z,22.46
2022-12-20T12:59:49.719Z,22.54
2022-12-20T13:02:23.085Z,22.62
2022-12-20T13:05:11.085Z,22.71
2022-12-20T13:07:44.794Z,22.75
2022-12-20T13:10:21.519Z,22.80
2022-12-20T13:12:54.655Z,22.85
2022-12-20T13:15:27.592Z,22.91
2022-12-20T13:18:02.473Z,22.96
2022-12-20T13:20:34.336Z,23.06
2022-12-20T13:23:18.151Z,23.13
2022-12-20T13:25:53.617Z,23.17
2022-12-20T13:28:29.237Z,23.21
2022-12-20T13:31:08.577Z,23.25
2022-12-20T13:33:44.327Z,23.27
2022-12-20T13:36:19.952Z,23.36
2022-12-20T13:38:58.037Z,23.40
2022-12-20T13:41:39.896Z,23.43
2022-12-20T13:44:21.771Z,23.47
2022-12-20T13:47:06.921Z,23.51
2022-12-20T13:49:43.721Z,23.55
2022-12-20T13:52:25.724Z,23.58
2022-12-20T13:54:58.126Z,23.63
2022-12-20T13:57:31.142Z,23.70
2022-12-20T14:00:07.227Z,23.75
2022-12-20T14:02:41.077Z,23.77
2022-12-20T14:05:17.068Z,23.82
2022-12-20T14:07:48.741Z,23.86
2022-12-20T14:10:26.253Z,23.89
2022-12-20T14:12:57.412Z,23.93
2022-12-20T14:15:32.767Z,23.96
2022-12-20T14:18:18.731Z,23.99
2022-12-20T14:20:50.899Z,23.98
2022-12-20T14:23:29.755Z,24.04
2022-12-20T14:26:01.434Z,24.07
2022-12-20T14:28:41.957Z,24.15
2022-12-20T14:31:30.061Z,24.21
2022-12-20T14:34:15.308Z,24.26
2022-12-20T14:36:49.395Z,24.29
2022-12-20T14:39:36.050Z,24.33
2022-12-20T14:42:15.345Z,24.35
2022-12-20T14:44:45.635Z,24.39
2022-12-20T14:47:18.658Z,24.41
2022-12-20T14:50:00.041Z,24.44
2022-12-20T14:52:36.580Z,24.49
2022-12-20T14:55:12.611Z,24.54
2022-12-20T14:57:53.157Z,24.59
2022-12-20T15:00:31.080Z,24.61
2022-12-20T15:03:05.000Z,24.64
2022-12-20T15:05:41.352Z,24.65
2022-12-20T15:08:36.552Z,24.67
2022-12-20T15:11:24.521Z,24.71
2022-12-20T15:13:55.977Z,24.77
2022-12-20T15:16:33.953Z,24.81
2022-12-20T15:19:05.166Z,24.84
2022-12-20T15:21:42.142Z,24.86
2022-12-20T15:24:17.827Z,24.88
2022-12-20T15:26:48.422Z,24.91
2022-12-20T15:29:19.749Z,24.93
2022-12-20T15:31:50.713Z,24.96
2022-12-20T15:34:32.997Z,24.99
2022-12-20T15:37:04.144Z,25.02
2022-12-20T15:39:35.463Z,25.06
2022-12-20T15:42:08.556Z,25.07
2022-12-20T15:44:38.635Z,25.05
2022-12-20T15:47:10.318Z,25.01
2022-12-20T15:49:46.133Z,24.99
2022-12-20T15:52:15.037Z,24.98
2022-12-20T15:54:45.473Z,24.95
2022-12-20T15:57:16.892Z,24.92
2022-12-20T15:59:59.998Z,24.90
2022-12-20T16:02:28.151Z,24.89
2022-12-20T16:04:58.541Z,24.87
2022-12-20T16:07:28.945Z,24.85
2022-12-20T16:09:59.041Z,24.82
2022-12-20T16:12:32.006Z,24.80
2022-12-20T16:15:03.435Z,24.78
2022-12-20T16:17:34.635Z,24.75
2022-12-20T16:20:09.563Z,24.74
2022-12-20T16:22:40.078Z,24.73
2022-12-20T16:25:18.136Z,24.71
2022-12-20T16:27:44.296Z,24.70
2022-12-20T16:30:15.548Z,24.69
2022-12-20T16:32:45.653Z,24.68
2022-12-20T16:35:28.592Z,24.66
2022-12-20T16:37:59.350Z,24.64
2022-12-20T16:40:31.280Z,24.63
2022-12-20T16:43:02.467Z,24.62
2022-12-20T16:45:35.218Z,24.60
2022-12-20T16:48:06.169Z,24.58
2022-12-20T16:50:38.259Z,24.57
2022-12-20T16:53:08.599Z,24.54
2022-12-20T16:55:40.211Z,24.53
2022-12-20T16:58:11.280Z,24.51
2022-12-20T17:00:41.967Z,24.50
2022-12-20T17:03:12.569Z,24.31
2022-12-20T17:05:43.026Z,24.31
2022-12-20T17:11:00.983Z,24.41
2022-12-20T17:13:31.977Z,24.38
2022-12-20T17:16:03.298Z,24.37
2022-12-20T17:18:34.295Z,24.35
2022-12-20T17:21:05.946Z,24.33
2022-12-20T17:23:37.582Z,24.29
2022-12-20T17:26:08.606Z,24.28
2022-12-20T17:28:38.482Z,24.26
2022-12-20T17:31:23.478Z,24.23
2022-12-20T17:33:53.849Z,24.22
2022-12-20T17:36:24.463Z,24.20
2022-12-20T17:38:55.063Z,24.18
2022-12-20T17:41:33.155Z,24.16
2022-12-20T17:44:04.380Z,24.14
2022-12-20T17:46:35.819Z,24.10
2022-12-20T17:49:06.140Z,24.08
2022-12-20T17:51:36.498Z,24.07
2022-12-20T17:54:06.650Z,24.06
2022-12-20T17:56:38.995Z,24.04
2022-12-20T17:59:09.186Z,24.01
2022-12-20T18:01:39.425Z,24.04
2022-12-20T18:04:10.708Z,24.03
2022-12-20T18:06:41.751Z,24.06
2022-12-20T18:09:22.574Z,24.07
2022-12-20T18:11:55.336Z,24.08
2022-12-20T18:14:26.345Z,24.11
2022-12-20T18:16:56.949Z,24.14
2022-12-20T18:19:27.509Z,24.18
2022-12-20T18:21:59.262Z,24.23
2022-12-20T18:24:29.745Z,24.26
2022-12-20T18:26:59.891Z,24.28
2022-12-20T18:29:30.551Z,24.31
2022-12-20T18:32:01.245Z,24.32
2022-12-20T18:34:32.743Z,24.36
2022-12-20T18:37:04.841Z,24.39
2022-12-20T18:39:36.570Z,24.41
2022-12-20T18:42:06.924Z,24.44
2022-12-20T18:44:37.217Z,24.47
2022-12-20T18:47:07.435Z,24.49
2022-12-20T18:49:38.354Z,24.51
2022-12-20T18:52:08.926Z,24.54
2022-12-20T18:54:39.229Z,24.57
2022-12-20T18:57:09.601Z,24.59
2022-12-20T18:59:40.048Z,24.62
2022-12-20T19:02:13.267Z,24.65
2022-12-20T19:04:45.736Z,24.67
2022-12-20T19:07:17.574Z,24.69
2022-12-20T19:09:49.147Z,24.71
2022-12-20T19:12:19.970Z,24.74
2022-12-20T19:14:50.240Z,24.77
2022-12-20T19:17:20.480Z,24.79
2022-12-20T19:19:50.833Z,24.80
2022-12-20T19:22:21.456Z,24.76
2022-12-20T19:24:51.682Z,24.74
2022-12-20T19:27:21.639Z,24.72
2022-12-20T19:29:52.836Z,24.69
2022-12-20T19:32:22.793Z,24.68
2022-12-20T19:34:52.891Z,24.66
2022-12-20T19:37:23.154Z,24.65
2022-12-20T19:39:53.451Z,24.63
2022-12-20T19:42:25.120Z,24.61
2022-12-20T19:44:55.877Z,24.59
2022-12-20T19:47:27.587Z,24.58
2022-12-20T19:49:57.674Z,24.42
2022-12-20T19:52:31.998Z,24.42
2022-12-20T19:55:02.345Z,24.53
2022-12-20T19:57:34.962Z,24.50
2022-12-20T20:00:08.607Z,24.50
2022-12-20T20:02:39.416Z,24.50
2022-12-20T20:05:14.818Z,24.48
2022-12-20T20:07:42.641Z,24.46
2022-12-20T20:10:15.763Z,24.46
2022-12-20T20:12:45.121Z,24.44
2022-12-20T20:15:15.651Z,24.42
2022-12-20T20:17:45.843Z,24.41
2022-12-20T20:20:16.623Z,24.40
2022-12-20T20:22:46.902Z,24.38
2022-12-20T20:25:17.050Z,24.37
2022-12-20T20:27:47.277Z,24.35
2022-12-20T20:30:18.307Z,24.32
2022-12-20T20:32:48.701Z,24.31
2022-12-20T20:35:18.997Z,24.30
2022-12-20T20:37:51.273Z,24.28
2022-12-20T20:40:21.736Z,24.28
2022-12-20T20:42:52.525Z,24.26
2022-12-20T20:45:22.904Z,24.24
2022-12-20T20:47:53.120Z,24.23
2022-12-20T20:50:23.376Z,24.22
2022-12-20T20:52:53.628Z,24.20
2022-12-20T20:55:23.731Z,24.19
2022-12-20T20:57:54.868Z,24.16
2022-12-20T21:00:26.168Z,24.03
2022-12-20T21:02:57.918Z,24.03
2022-12-20T21:08:03.700Z,24.11
2022-12-20T21:10:34.454Z,24.09
2022-12-20T21:13:05.475Z,24.10
2022-12-20T21:15:37.782Z,24.13
2022-12-20T21:18:08.088Z,24.14
2022-12-20T21:20:38.789Z,24.17
2022-12-20T21:23:09.194Z,24.19
2022-12-20T21:25:39.767Z,24.21
2022-12-20T21:28:10.407Z,24.22
2022-12-20T21:30:40.684Z,24.25
2022-12-20T21:33:10.768Z,24.28
2022-12-20T21:35:41.015Z,24.30
2022-12-20T21:38:11.090Z,24.33
2022-12-20T21:40:43.259Z,24.36
2022-12-20T21:43:13.437Z,24.38
2022-12-20T21:45:46.619Z,24.41
2022-12-20T21:48:17.774Z,24.43
2022-12-20T21:50:50.732Z,24.46
2022-12-20T21:53:23.640Z,24.48
2022-12-20T21:56:01.106Z,24.51
2022-12-20T21:58:32.637Z,24.53
2022-12-20T22:01:05.908Z,24.57
2022-12-20T22:03:36.222Z,24.58
2022-12-20T22:06:06.701Z,24.60
2022-12-20T22:08:37.030Z,24.57
2022-12-20T22:11:15.707Z,24.55
2022-12-20T22:13:46.319Z,24.54
2022-12-20T22:16:18.790Z,24.49
2022-12-20T22:18:51.876Z,24.49
2022-12-20T22:21:24.343Z,24.47
2022-12-20T22:23:56.736Z,24.47
2022-12-20T22:26:28.149Z,24.45
2022-12-20T22:29:02.641Z,24.44
2022-12-20T22:31:33.254Z,24.42
2022-12-20T22:34:04.236Z,24.42
2022-12-20T22:36:34.929Z,24.38
2022-12-20T22:39:06.576Z,24.38
2022-12-20T22:41:37.333Z,24.34
2022-12-20T22:44:07.429Z,24.35
2022-12-20T22:46:39.839Z,24.34
2022-12-20T22:49:14.026Z,24.34
2022-12-20T22:51:47.343Z,24.33
2022-12-20T22:54:17.644Z,24.30
2022-12-20T22:56:49.057Z,24.30
2022-12-20T22:59:26.006Z,24.28
2022-12-20T23:02:00.591Z,24.26
2022-12-20T23:04:31.852Z,24.24
2022-12-20T23:07:03.057Z,24.24
2022-12-20T23:09:34.469Z,24.22
2022-12-20T23:12:22.130Z,24.20
2022-12-20T23:15:08.885Z,24.19
2022-12-20T23:17:39.083Z,24.18
2022-12-20T23:20:26.996Z,24.15
2022-12-20T23:22:57.260Z,24.13
2022-12-20T23:25:27.591Z,24.10
2022-12-20T23:27:57.681Z,24.08
2022-12-20T23:30:28.848Z,24.05
2022-12-20T23:32:59.027Z,23.90
2022-12-20T23:35:29.360Z,23.90
2022-12-20T23:38:00.134Z,24.00
2022-12-20T23:40:30.602Z,23.97
2022-12-20T23:43:00.728Z,23.95
2022-12-20T23:45:31.171Z,23.94
2022-12-20T23:48:02.229Z,23.91
2022-12-20T23:50:33.563Z,23.89
2022-12-20T23:53:03.999Z,23.87
2022-12-20T23:55:34.056Z,23.83
2022-12-20T23:58:04.417Z,23.83
